sensor_id;sensor_type;location;lat;lon;timestamp;P1;durP1;ratioP1;P2;durP2;ratioP2
44480;SDS011;30184;42.018;23.670;2022-12-10T00:00:07;118.40;;;42.25;;
44480;SDS011;30184;42.018;23.670;2022-12-10T00:02:37;144.27;;;50.47;;
44480;SDS011;30184;42.018;23.670;2022-12-10T00:05:06;149.43;;;51.75;;
44480;SDS011;30184;42.018;23.670;2022-12-10T00:07:36;126.40;;;46.28;;
44480;SDS011;30184;42.018;23.670;2022-12-10T00:10:05;87.40;;;38.83;;
44480;SDS011;30184;42.018;23.670;2022-12-10T00:12:38;104.93;;;40.65;;
44480;SDS011;30184;42.018;23.670;2022-12-10T00:15:07;112.28;;;41.65;;
44480;SDS011;30184;42.018;23.670;2022-12-10T00:17:37;75.80;;;35.50;;
44480;SDS011;30184;42.018;23.670;2022-12-10T00:20:06;85.43;;;36.92;;
44480;SDS011;30184;42.018;23.670;2022-12-10T00:22:36;80.93;;;37.00;;
44480;SDS011;30184;42.018;23.670;2022-12-10T00:25:05;69.72;;;36.45;;
44480;SDS011;30184;42.018;23.670;2022-12-10T00:27:35;75.85;;;37.85;;
44480;SDS011;30184;42.018;23.670;2022-12-10T00:30:06;100.05;;;42.90;;
44480;SDS011;30184;42.018;23.670;2022-12-10T00:32:36;98.10;;;46.25;;
44480;SDS011;30184;42.018;23.670;2022-12-10T00:35:05;89.10;;;39.92;;
44480;SDS011;30184;42.018;23.670;2022-12-10T00:37:35;89.35;;;43.75;;
44480;SDS011;30184;42.018;23.670;2022-12-10T00:40:04;87.45;;;43.08;;
44480;SDS011;30184;42.018;23.670;2022-12-10T00:42:34;72.03;;;36.92;;
44480;SDS011;30184;42.018;23.670;2022-12-10T00:45:03;64.63;;;31.60;;
44480;SDS011;30184;42.018;23.670;2022-12-10T00:47:35;70.22;;;33.33;;
44480;SDS011;30184;42.018;23.670;2022-12-10T00:50:04;53.40;;;29.80;;
44480;SDS011;30184;42.018;23.670;2022-12-10T00:52:34;79.32;;;34.08;;
44480;SDS011;30184;42.018;23.670;2022-12-10T00:55:03;72.22;;;34.15;;
44480;SDS011;30184;42.018;23.670;2022-12-10T00:57:32;73.05;;;34.53;;
44480;SDS011;30184;42.018;23.670;2022-12-10T01:00:02;73.97;;;36.60;;
44480;SDS011;30184;42.018;23.670;2022-12-10T01:02:33;73.13;;;35.60;;
44480;SDS011;30184;42.018;23.670;2022-12-10T01:05:03;88.80;;;44.00;;
44480;SDS011;30184;42.018;23.670;2022-12-10T01:07:32;69.40;;;40.40;;
44480;SDS011;30184;42.018;23.670;2022-12-10T01:10:02;75.95;;;39.15;;
44480;SDS011;30184;42.018;23.670;2022-12-10T01:12:32;74.25;;;35.03;;
44480;SDS011;30184;42.018;23.670;2022-12-10T01:15:01;77.50;;;34.58;;
44480;SDS011;30184;42.018;23.670;2022-12-10T01:17:31;68.60;;;33.05;;
44480;SDS011;30184;42.018;23.670;2022-12-10T01:20:01;59.17;;;31.77;;
44480;SDS011;30184;42.018;23.670;2022-12-10T01:22:30;66.75;;;34.53;;
44480;SDS011;30184;42.018;23.670;2022-12-10T01:24:59;75.93;;;34.53;;
44480;SDS011;30184;42.018;23.670;2022-12-10T01:27:28;68.18;;;32.97;;
44480;SDS011;30184;42.018;23.670;2022-12-10T01:29:57;65.97;;;35.47;;
44480;SDS011;30184;42.018;23.670;2022-12-10T01:32:27;67.72;;;33.67;;
44480;SDS011;30184;42.018;23.670;2022-12-10T01:34:56;115.22;;;46.95;;
44480;SDS011;30184;42.018;23.670;2022-12-10T01:37:26;119.35;;;50.97;;
44480;SDS011;30184;42.018;23.670;2022-12-10T01:39:55;83.90;;;36.35;;
44480;SDS011;30184;42.018;23.670;2022-12-10T01:42:24;59.75;;;33.10;;
44480;SDS011;30184;42.018;23.670;2022-12-10T01:44:58;69.45;;;33.65;;
44480;SDS011;30184;42.018;23.670;2022-12-10T01:47:32;65.60;;;32.42;;
44480;SDS011;30184;42.018;23.670;2022-12-10T01:50:01;79.32;;;35.08;;
44480;SDS011;30184;42.018;23.670;2022-12-10T01:52:33;108.15;;;46.88;;
44480;SDS011;30184;42.018;23.670;2022-12-10T01:55:05;95.82;;;44.42;;
44480;SDS011;30184;42.018;23.670;2022-12-10T01:57:56;91.88;;;40.40;;
44480;SDS011;30184;42.018;23.670;2022-12-10T02:00:25;66.53;;;32.22;;
44480;SDS011;30184;42.018;23.670;2022-12-10T02:02:55;81.35;;;37.42;;
44480;SDS011;30184;42.018;23.670;2022-12-10T02:05:31;66.17;;;33.43;;
44480;SDS011;30184;42.018;23.670;2022-12-10T02:08:08;68.45;;;35.35;;
44480;SDS011;30184;42.018;23.670;2022-12-10T02:10:46;75.35;;;36.80;;
44480;SDS011;30184;42.018;23.670;2022-12-10T02:13:25;65.88;;;35.38;;
44480;SDS011;30184;42.018;23.670;2022-12-10T02:16:00;67.35;;;38.38;;
44480;SDS011;30184;42.018;23.670;2022-12-10T02:18:35;79.25;;;41.63;;
44480;SDS011;30184;42.018;23.670;2022-12-10T02:21:07;79.13;;;43.92;;
44480;SDS011;30184;42.018;23.670;2022-12-10T02:23:43;79.63;;;43.05;;
44480;SDS011;30184;42.018;23.670;2022-12-10T02:28:51;81.25;;;41.28;;
44480;SDS011;30184;42.018;23.670;2022-12-10T02:31:26;63.40;;;34.95;;
44480;SDS011;30184;42.018;23.670;2022-12-10T02:34:01;81.03;;;40.78;;
44480;SDS011;30184;42.018;23.670;2022-12-10T02:36:35;67.00;;;34.40;;
44480;SDS011;30184;42.018;23.670;2022-12-10T02:39:08;65.75;;;31.92;;
44480;SDS011;30184;42.018;23.670;2022-12-10T02:41:48;67.20;;;34.88;;
44480;SDS011;30184;42.018;23.670;2022-12-10T02:44:21;71.53;;;34.88;;
44480;SDS011;30184;42.018;23.670;2022-12-10T02:46:55;66.65;;;36.55;;
44480;SDS011;30184;42.018;23.670;2022-12-10T02:49:32;77.88;;;34.13;;
44480;SDS011;30184;42.018;23.670;2022-12-10T02:52:07;69.30;;;36.53;;
44480;SDS011;30184;42.018;23.670;2022-12-10T02:54:41;90.68;;;41.72;;
44480;SDS011;30184;42.018;23.670;2022-12-10T02:57:31;71.35;;;35.17;;
44480;SDS011;30184;42.018;23.670;2022-12-10T03:00:08;78.18;;;39.13;;
44480;SDS011;30184;42.018;23.670;2022-12-10T03:02:59;75.85;;;41.03;;
44480;SDS011;30184;42.018;23.670;2022-12-10T03:05:42;188.50;;;80.60;;
44480;SDS011;30184;42.018;23.670;2022-12-10T03:08:17;141.90;;;61.00;;
44480;SDS011;30184;42.018;23.670;2022-12-10T03:10:51;98.38;;;44.53;;
44480;SDS011;30184;42.018;23.670;2022-12-10T03:13:25;119.88;;;53.83;;
44480;SDS011;30184;42.018;23.670;2022-12-10T03:15:57;99.30;;;51.40;;
44480;SDS011;30184;42.018;23.670;2022-12-10T03:18:29;75.38;;;35.83;;
44480;SDS011;30184;42.018;23.670;2022-12-10T03:21:01;74.22;;;36.45;;
44480;SDS011;30184;42.018;23.670;2022-12-10T03:23:33;79.65;;;37.20;;
44480;SDS011;30184;42.018;23.670;2022-12-10T03:26:06;70.88;;;37.30;;
44480;SDS011;30184;42.018;23.670;2022-12-10T03:28:37;66.18;;;31.15;;
44480;SDS011;30184;42.018;23.670;2022-12-10T03:31:10;61.92;;;33.50;;
44480;SDS011;30184;42.018;23.670;2022-12-10T03:33:43;64.10;;;32.03;;
44480;SDS011;30184;42.018;23.670;2022-12-10T03:36:14;57.17;;;31.55;;
44480;SDS011;30184;42.018;23.670;2022-12-10T03:38:45;63.65;;;32.53;;
44480;SDS011;30184;42.018;23.670;2022-12-10T03:41:15;170.30;;;64.03;;
44480;SDS011;30184;42.018;23.670;2022-12-10T03:43:51;58.08;;;29.35;;
44480;SDS011;30184;42.018;23.670;2022-12-10T03:46:21;50.22;;;25.38;;
44480;SDS011;30184;42.018;23.670;2022-12-10T03:48:52;57.30;;;29.45;;
44480;SDS011;30184;42.018;23.670;2022-12-10T03:51:22;50.03;;;27.90;;
44480;SDS011;30184;42.018;23.670;2022-12-10T03:53:51;64.05;;;31.95;;
44480;SDS011;30184;42.018;23.670;2022-12-10T03:59:20;84.43;;;40.22;;
44480;SDS011;30184;42.018;23.670;2022-12-10T04:01:49;90.82;;;43.30;;
44480;SDS011;30184;42.018;23.670;2022-12-10T04:04:20;97.35;;;47.17;;
44480;SDS011;30184;42.018;23.670;2022-12-10T04:06:49;55.10;;;27.10;;
44480;SDS011;30184;42.018;23.670;2022-12-10T04:09:18;46.95;;;22.65;;
44480;SDS011;30184;42.018;23.670;2022-12-10T04:11:47;48.58;;;24.00;;
44480;SDS011;30184;42.018;23.670;2022-12-10T04:14:16;50.83;;;27.85;;
44480;SDS011;30184;42.018;23.670;2022-12-10T04:17:03;52.78;;;25.20;;
44480;SDS011;30184;42.018;23.670;2022-12-10T04:19:33;51.50;;;24.35;;
44480;SDS011;30184;42.018;23.670;2022-12-10T04:22:03;40.95;;;20.85;;
44480;SDS011;30184;42.018;23.670;2022-12-10T04:27:36;41.28;;;20.50;;
44480;SDS011;30184;42.018;23.670;2022-12-10T04:30:08;53.90;;;21.98;;
44480;SDS011;30184;42.018;23.670;2022-12-10T04:32:39;86.55;;;33.17;;
44480;SDS011;30184;42.018;23.670;2022-12-10T04:35:09;52.00;;;27.40;;
44480;SDS011;30184;42.018;23.670;2022-12-10T04:37:38;435.30;;;237.57;;
44480;SDS011;30184;42.018;23.670;2022-12-10T04:40:09;119.35;;;48.92;;
44480;SDS011;30184;42.018;23.670;2022-12-10T04:42:39;89.38;;;48.20;;
44480;SDS011;30184;42.018;23.670;2022-12-10T04:45:08;102.80;;;47.58;;
44480;SDS011;30184;42.018;23.670;2022-12-10T04:47:38;60.25;;;33.45;;
44480;SDS011;30184;42.018;23.670;2022-12-10T04:50:07;78.82;;;38.75;;
44480;SDS011;30184;42.018;23.670;2022-12-10T04:52:38;77.07;;;38.70;;
44480;SDS011;30184;42.018;23.670;2022-12-10T04:55:07;49.78;;;25.95;;
44480;SDS011;30184;42.018;23.670;2022-12-10T04:57:37;44.20;;;22.08;;
44480;SDS011;30184;42.018;23.670;2022-12-10T05:00:06;54.33;;;25.55;;
44480;SDS011;30184;42.018;23.670;2022-12-10T05:02:37;44.25;;;23.45;;
44480;SDS011;30184;42.018;23.670;2022-12-10T05:05:06;45.05;;;24.52;;
44480;SDS011;30184;42.018;23.670;2022-12-10T05:07:37;50.90;;;24.65;;
44480;SDS011;30184;42.018;23.670;2022-12-10T05:10:06;48.38;;;24.55;;
44480;SDS011;30184;42.018;23.670;2022-12-10T05:12:36;43.95;;;22.98;;
44480;SDS011;30184;42.018;23.670;2022-12-10T05:15:05;48.80;;;26.73;;
44480;SDS011;30184;42.018;23.670;2022-12-10T05:17:36;59.03;;;29.00;;
44480;SDS011;30184;42.018;23.670;2022-12-10T05:20:05;64.75;;;33.53;;
44480;SDS011;30184;42.018;23.670;2022-12-10T05:22:37;71.53;;;39.00;;
44480;SDS011;30184;42.018;23.670;2022-12-10T05:25:23;76.30;;;40.13;;
44480;SDS011;30184;42.018;23.670;2022-12-10T05:27:52;106.30;;;55.97;;
44480;SDS011;30184;42.018;23.670;2022-12-10T05:30:21;144.57;;;73.65;;
44480;SDS011;30184;42.018;23.670;2022-12-10T05:32:50;104.22;;;51.13;;
44480;SDS011;30184;42.018;23.670;2022-12-10T05:35:19;77.82;;;44.30;;
44480;SDS011;30184;42.018;23.670;2022-12-10T05:37:50;88.90;;;46.08;;
44480;SDS011;30184;42.018;23.670;2022-12-10T05:40:19;154.48;;;76.55;;
44480;SDS011;30184;42.018;23.670;2022-12-10T05:42:48;93.85;;;49.33;;
44480;SDS011;30184;42.018;23.670;2022-12-10T05:45:17;106.00;;;57.65;;
44480;SDS011;30184;42.018;23.670;2022-12-10T05:47:46;113.05;;;58.83;;
44480;SDS011;30184;42.018;23.670;2022-12-10T05:50:15;128.52;;;68.78;;
44480;SDS011;30184;42.018;23.670;2022-12-10T05:52:44;140.02;;;73.85;;
44480;SDS011;30184;42.018;23.670;2022-12-10T05:55:15;127.38;;;67.30;;
44480;SDS011;30184;42.018;23.670;2022-12-10T05:57:44;111.90;;;58.38;;
44480;SDS011;30184;42.018;23.670;2022-12-10T06:00:13;126.25;;;67.55;;
44480;SDS011;30184;42.018;23.670;2022-12-10T06:02:43;77.38;;;44.80;;
44480;SDS011;30184;42.018;23.670;2022-12-10T06:05:12;63.28;;;38.20;;
44480;SDS011;30184;42.018;23.670;2022-12-10T06:07:41;69.60;;;39.03;;
44480;SDS011;30184;42.018;23.670;2022-12-10T06:10:10;62.35;;;37.95;;
44480;SDS011;30184;42.018;23.670;2022-12-10T06:12:41;89.63;;;47.80;;
44480;SDS011;30184;42.018;23.670;2022-12-10T06:15:10;87.18;;;47.95;;
44480;SDS011;30184;42.018;23.670;2022-12-10T06:17:39;91.65;;;50.83;;
44480;SDS011;30184;42.018;23.670;2022-12-10T06:20:08;132.82;;;71.25;;
44480;SDS011;30184;42.018;23.670;2022-12-10T06:22:38;133.07;;;79.10;;
44480;SDS011;30184;42.018;23.670;2022-12-10T06:25:08;240.23;;;106.88;;
44480;SDS011;30184;42.018;23.670;2022-12-10T06:27:37;185.27;;;93.55;;
44480;SDS011;30184;42.018;23.670;2022-12-10T06:30:08;417.35;;;227.02;;
44480;SDS011;30184;42.018;23.670;2022-12-10T06:32:38;267.38;;;146.27;;
44480;SDS011;30184;42.018;23.670;2022-12-10T06:35:10;157.35;;;87.25;;
44480;SDS011;30184;42.018;23.670;2022-12-10T06:37:39;179.98;;;95.47;;
44480;SDS011;30184;42.018;23.670;2022-12-10T06:40:08;168.27;;;98.68;;
44480;SDS011;30184;42.018;23.670;2022-12-10T06:42:38;219.13;;;124.25;;
44480;SDS011;30184;42.018;23.670;2022-12-10T06:45:08;173.18;;;109.20;;
44480;SDS011;30184;42.018;23.670;2022-12-10T06:47:38;602.35;;;382.50;;
44480;SDS011;30184;42.018;23.670;2022-12-10T06:50:09;404.92;;;228.57;;
44480;SDS011;30184;42.018;23.670;2022-12-10T06:52:39;255.15;;;145.93;;
44480;SDS011;30184;42.018;23.670;2022-12-10T06:55:08;154.13;;;95.88;;
44480;SDS011;30184;42.018;23.670;2022-12-10T06:57:37;195.73;;;118.63;;
44480;SDS011;30184;42.018;23.670;2022-12-10T07:00:07;238.35;;;140.90;;
44480;SDS011;30184;42.018;23.670;2022-12-10T07:02:38;307.50;;;179.02;;
44480;SDS011;30184;42.018;23.670;2022-12-10T07:05:07;331.35;;;195.18;;
44480;SDS011;30184;42.018;23.670;2022-12-10T07:07:37;305.17;;;189.63;;
44480;SDS011;30184;42.018;23.670;2022-12-10T07:10:06;344.25;;;199.90;;
44480;SDS011;30184;42.018;23.670;2022-12-10T07:12:36;344.75;;;203.05;;
44480;SDS011;30184;42.018;23.670;2022-12-10T07:15:05;224.70;;;131.30;;
44480;SDS011;30184;42.018;23.670;2022-12-10T07:17:36;257.80;;;145.23;;
44480;SDS011;30184;42.018;23.670;2022-12-10T07:20:05;256.48;;;150.45;;
44480;SDS011;30184;42.018;23.670;2022-12-10T07:22:35;293.85;;;171.50;;
44480;SDS011;30184;42.018;23.670;2022-12-10T07:25:04;274.98;;;159.20;;
44480;SDS011;30184;42.018;23.670;2022-12-10T07:27:34;260.42;;;158.10;;
44480;SDS011;30184;42.018;23.670;2022-12-10T07:30:04;241.18;;;144.88;;
44480;SDS011;30184;42.018;23.670;2022-12-10T07:32:35;236.60;;;154.40;;
44480;SDS011;30184;42.018;23.670;2022-12-10T07:35:04;227.02;;;140.02;;
44480;SDS011;30184;42.018;23.670;2022-12-10T07:37:34;211.45;;;123.85;;
44480;SDS011;30184;42.018;23.670;2022-12-10T07:40:04;200.88;;;114.95;;
44480;SDS011;30184;42.018;23.670;2022-12-10T07:42:34;136.23;;;79.07;;
44480;SDS011;30184;42.018;23.670;2022-12-10T07:45:03;170.38;;;102.05;;
44480;SDS011;30184;42.018;23.670;2022-12-10T07:47:35;115.63;;;63.80;;
44480;SDS011;30184;42.018;23.670;2022-12-10T07:50:06;273.20;;;112.55;;
44480;SDS011;30184;42.018;23.670;2022-12-10T07:52:36;93.45;;;49.78;;
44480;SDS011;30184;42.018;23.670;2022-12-10T07:55:05;182.70;;;88.30;;
44480;SDS011;30184;42.018;23.670;2022-12-10T07:57:34;171.43;;;89.43;;
44480;SDS011;30184;42.018;23.670;2022-12-10T08:00:04;129.80;;;71.22;;
44480;SDS011;30184;42.018;23.670;2022-12-10T08:02:39;69.40;;;35.70;;
44480;SDS011;30184;42.018;23.670;2022-12-10T08:05:08;90.30;;;50.65;;
44480;SDS011;30184;42.018;23.670;2022-12-10T08:07:37;74.25;;;41.10;;
44480;SDS011;30184;42.018;23.670;2022-12-10T08:10:07;99.28;;;65.07;;
44480;SDS011;30184;42.018;23.670;2022-12-10T08:12:36;69.65;;;42.10;;
44480;SDS011;30184;42.018;23.670;2022-12-10T08:15:05;76.38;;;42.30;;
44480;SDS011;30184;42.018;23.670;2022-12-10T08:17:35;94.13;;;56.78;;
44480;SDS011;30184;42.018;23.670;2022-12-10T08:20:06;87.25;;;50.53;;
44480;SDS011;30184;42.018;23.670;2022-12-10T08:22:37;78.00;;;43.45;;
44480;SDS011;30184;42.018;23.670;2022-12-10T08:25:06;79.63;;;50.13;;
44480;SDS011;30184;42.018;23.670;2022-12-10T08:27:35;98.57;;;64.72;;
44480;SDS011;30184;42.018;23.670;2022-12-10T08:30:05;61.53;;;38.25;;
44480;SDS011;30184;42.018;23.670;2022-12-10T08:32:35;82.35;;;52.20;;
44480;SDS011;30184;42.018;23.670;2022-12-10T08:35:06;91.80;;;58.78;;
44480;SDS011;30184;42.018;23.670;2022-12-10T08:37:36;174.20;;;101.55;;
44480;SDS011;30184;42.018;23.670;2022-12-10T08:40:05;112.95;;;64.00;;
44480;SDS011;30184;42.018;23.670;2022-12-10T08:42:35;97.43;;;61.72;;
44480;SDS011;30184;42.018;23.670;2022-12-10T08:45:04;96.13;;;57.80;;
44480;SDS011;30184;42.018;23.670;2022-12-10T08:47:34;91.97;;;56.90;;
44480;SDS011;30184;42.018;23.670;2022-12-10T08:50:03;78.72;;;50.38;;
44480;SDS011;30184;42.018;23.670;2022-12-10T08:52:34;91.25;;;47.33;;
44480;SDS011;30184;42.018;23.670;2022-12-10T08:55:03;95.07;;;44.10;;
44480;SDS011;30184;42.018;23.670;2022-12-10T08:57:33;85.03;;;43.03;;
44480;SDS011;30184;42.018;23.670;2022-12-10T09:00:03;130.32;;;66.32;;
44480;SDS011;30184;42.018;23.670;2022-12-10T09:02:33;92.88;;;48.22;;
44480;SDS011;30184;42.018;23.670;2022-12-10T09:05:02;69.03;;;38.97;;
44480;SDS011;30184;42.018;23.670;2022-12-10T09:07:33;87.15;;;46.10;;
44480;SDS011;30184;42.018;23.670;2022-12-10T09:10:03;94.32;;;47.00;;
44480;SDS011;30184;42.018;23.670;2022-12-10T09:12:32;91.43;;;46.65;;
44480;SDS011;30184;42.018;23.670;2022-12-10T09:15:02;81.57;;;50.17;;
44480;SDS011;30184;42.018;23.670;2022-12-10T09:17:31;74.85;;;42.38;;
44480;SDS011;30184;42.018;23.670;2022-12-10T09:20:00;69.65;;;38.33;;
44480;SDS011;30184;42.018;23.670;2022-12-10T09:22:29;85.15;;;44.88;;
44480;SDS011;30184;42.018;23.670;2022-12-10T09:25:02;94.95;;;51.97;;
44480;SDS011;30184;42.018;23.670;2022-12-10T09:27:32;161.93;;;87.45;;
44480;SDS011;30184;42.018;23.670;2022-12-10T09:30:02;124.13;;;64.57;;
44480;SDS011;30184;42.018;23.670;2022-12-10T09:32:31;128.70;;;68.20;;
44480;SDS011;30184;42.018;23.670;2022-12-10T09:35:00;119.47;;;61.20;;
44480;SDS011;30184;42.018;23.670;2022-12-10T09:37:29;91.07;;;45.45;;
44480;SDS011;30184;42.018;23.670;2022-12-10T09:39:59;107.25;;;54.40;;
44480;SDS011;30184;42.018;23.670;2022-12-10T09:42:33;110.88;;;60.85;;
44480;SDS011;30184;42.018;23.670;2022-12-10T09:45:09;69.18;;;37.50;;
44480;SDS011;30184;42.018;23.670;2022-12-10T09:47:48;60.97;;;32.35;;
44480;SDS011;30184;42.018;23.670;2022-12-10T09:50:26;51.45;;;28.70;;
44480;SDS011;30184;42.018;23.670;2022-12-10T09:52:59;40.65;;;21.27;;
44480;SDS011;30184;42.018;23.670;2022-12-10T09:55:32;37.78;;;20.60;;
44480;SDS011;30184;42.018;23.670;2022-12-10T09:58:08;52.72;;;31.67;;
44480;SDS011;30184;42.018;23.670;2022-12-10T10:00:44;47.95;;;29.17;;
44480;SDS011;30184;42.018;23.670;2022-12-10T10:03:15;75.57;;;45.10;;
44480;SDS011;30184;42.018;23.670;2022-12-10T10:05:46;55.92;;;34.83;;
44480;SDS011;30184;42.018;23.670;2022-12-10T10:08:19;66.88;;;38.28;;
44480;SDS011;30184;42.018;23.670;2022-12-10T10:10:55;62.30;;;35.88;;
44480;SDS011;30184;42.018;23.670;2022-12-10T10:13:29;70.05;;;43.70;;
44480;SDS011;30184;42.018;23.670;2022-12-10T10:16:16;218.25;;;114.40;;
44480;SDS011;30184;42.018;23.670;2022-12-10T10:18:51;56.88;;;32.60;;
44480;SDS011;30184;42.018;23.670;2022-12-10T10:21:25;67.93;;;45.00;;
44480;SDS011;30184;42.018;23.670;2022-12-10T10:23:55;109.88;;;61.63;;
44480;SDS011;30184;42.018;23.670;2022-12-10T10:26:25;76.60;;;42.40;;
44480;SDS011;30184;42.018;23.670;2022-12-10T10:28:57;46.75;;;26.23;;
44480;SDS011;30184;42.018;23.670;2022-12-10T10:31:30;77.78;;;41.95;;
44480;SDS011;30184;42.018;23.670;2022-12-10T10:34:02;72.95;;;37.45;;
44480;SDS011;30184;42.018;23.670;2022-12-10T10:36:33;65.70;;;39.83;;
44480;SDS011;30184;42.018;23.670;2022-12-10T10:39:07;112.80;;;64.95;;
44480;SDS011;30184;42.018;23.670;2022-12-10T10:41:39;60.17;;;39.47;;
44480;SDS011;30184;42.018;23.670;2022-12-10T10:44:15;70.07;;;39.42;;
44480;SDS011;30184;42.018;23.670;2022-12-10T10:46:47;101.78;;;55.03;;
44480;SDS011;30184;42.018;23.670;2022-12-10T10:49:19;58.22;;;35.78;;
44480;SDS011;30184;42.018;23.670;2022-12-10T10:51:53;67.72;;;42.03;;
44480;SDS011;30184;42.018;23.670;2022-12-10T10:54:38;118.13;;;65.55;;
44480;SDS011;30184;42.018;23.670;2022-12-10T10:57:10;90.00;;;52.15;;
44480;SDS011;30184;42.018;23.670;2022-12-10T10:59:43;94.40;;;54.22;;
44480;SDS011;30184;42.018;23.670;2022-12-10T11:02:18;141.52;;;80.65;;
44480;SDS011;30184;42.018;23.670;2022-12-10T11:04:50;112.68;;;67.00;;
44480;SDS011;30184;42.018;23.670;2022-12-10T11:07:22;149.10;;;87.80;;
44480;SDS011;30184;42.018;23.670;2022-12-10T11:09:53;128.95;;;74.05;;
44480;SDS011;30184;42.018;23.670;2022-12-10T11:12:27;83.30;;;47.78;;
44480;SDS011;30184;42.018;23.670;2022-12-10T11:15:03;85.38;;;48.25;;
44480;SDS011;30184;42.018;23.670;2022-12-10T11:17:57;79.32;;;46.80;;
44480;SDS011;30184;42.018;23.670;2022-12-10T11:20:27;73.15;;;47.97;;
44480;SDS011;30184;42.018;23.670;2022-12-10T11:23:00;67.90;;;42.40;;
44480;SDS011;30184;42.018;23.670;2022-12-10T11:25:37;55.92;;;34.75;;
44480;SDS011;30184;42.018;23.670;2022-12-10T11:28:18;95.03;;;51.95;;
44480;SDS011;30184;42.018;23.670;2022-12-10T11:31:01;78.13;;;46.47;;
44480;SDS011;30184;42.018;23.670;2022-12-10T11:33:43;90.50;;;50.33;;
44480;SDS011;30184;42.018;23.670;2022-12-10T11:36:22;78.03;;;44.53;;
44480;SDS011;30184;42.018;23.670;2022-12-10T11:39:05;72.28;;;38.67;;
44480;SDS011;30184;42.018;23.670;2022-12-10T11:41:48;114.28;;;59.35;;
44480;SDS011;30184;42.018;23.670;2022-12-10T11:44:27;172.70;;;94.97;;
44480;SDS011;30184;42.018;23.670;2022-12-10T11:47:14;103.30;;;58.67;;
44480;SDS011;30184;42.018;23.670;2022-12-10T11:49:57;197.35;;;110.20;;
44480;SDS011;30184;42.018;23.670;2022-12-10T11:52:39;150.45;;;89.35;;
44480;SDS011;30184;42.018;23.670;2022-12-10T11:55:32;61.65;;;36.65;;
44480;SDS011;30184;42.018;23.670;2022-12-10T12:01:06;52.35;;;33.38;;
44480;SDS011;30184;42.018;23.670;2022-12-10T12:03:49;55.72;;;30.75;;
44480;SDS011;30184;42.018;23.670;2022-12-10T12:09:39;51.95;;;30.08;;
44480;SDS011;30184;42.018;23.670;2022-12-10T12:12:20;60.63;;;32.20;;
44480;SDS011;30184;42.018;23.670;2022-12-10T12:15:01;61.75;;;35.95;;
44480;SDS011;30184;42.018;23.670;2022-12-10T12:17:42;403.85;;;204.80;;
44480;SDS011;30184;42.018;23.670;2022-12-10T12:20:22;164.93;;;90.40;;
44480;SDS011;30184;42.018;23.670;2022-12-10T12:22:55;118.28;;;63.30;;
44480;SDS011;30184;42.018;23.670;2022-12-10T12:25:28;98.45;;;47.33;;
44480;SDS011;30184;42.018;23.670;2022-12-10T12:28:02;77.85;;;47.08;;
44480;SDS011;30184;42.018;23.670;2022-12-10T12:30:39;114.65;;;61.78;;
44480;SDS011;30184;42.018;23.670;2022-12-10T12:33:11;111.28;;;64.28;;
44480;SDS011;30184;42.018;23.670;2022-12-10T12:35:47;141.43;;;76.03;;
44480;SDS011;30184;42.018;23.670;2022-12-10T12:38:27;124.13;;;71.82;;
44480;SDS011;30184;42.018;23.670;2022-12-10T12:41:00;138.20;;;80.68;;
44480;SDS011;30184;42.018;23.670;2022-12-10T12:43:35;149.63;;;85.15;;
44480;SDS011;30184;42.018;23.670;2022-12-10T12:46:13;195.45;;;108.30;;
44480;SDS011;30184;42.018;23.670;2022-12-10T12:48:50;171.13;;;100.93;;
44480;SDS011;30184;42.018;23.670;2022-12-10T12:51:26;156.85;;;93.57;;
44480;SDS011;30184;42.018;23.670;2022-12-10T12:54:00;194.63;;;110.38;;
44480;SDS011;30184;42.018;23.670;2022-12-10T12:56:34;124.88;;;70.53;;
44480;SDS011;30184;42.018;23.670;2022-12-10T12:59:22;150.02;;;82.20;;
44480;SDS011;30184;42.018;23.670;2022-12-10T13:02:08;215.68;;;109.40;;
44480;SDS011;30184;42.018;23.670;2022-12-10T13:04:47;165.65;;;90.88;;
44480;SDS011;30184;42.018;23.670;2022-12-10T13:07:30;82.38;;;45.28;;
44480;SDS011;30184;42.018;23.670;2022-12-10T13:10:23;163.52;;;96.38;;
44480;SDS011;30184;42.018;23.670;2022-12-10T13:13:07;117.82;;;67.35;;
44480;SDS011;30184;42.018;23.670;2022-12-10T13:15:50;174.30;;;91.00;;
44480;SDS011;30184;42.018;23.670;2022-12-10T13:18:33;86.43;;;47.17;;
44480;SDS011;30184;42.018;23.670;2022-12-10T13:24:08;64.80;;;33.75;;
44480;SDS011;30184;42.018;23.670;2022-12-10T13:26:40;58.00;;;33.47;;
44480;SDS011;30184;42.018;23.670;2022-12-10T13:29:42;91.82;;;60.35;;
44480;SDS011;30184;42.018;23.670;2022-12-10T13:32:14;68.07;;;43.42;;
44480;SDS011;30184;42.018;23.670;2022-12-10T13:34:45;61.67;;;32.47;;
44480;SDS011;30184;42.018;23.670;2022-12-10T13:37:16;91.07;;;48.85;;
44480;SDS011;30184;42.018;23.670;2022-12-10T13:39:52;65.45;;;30.30;;
44480;SDS011;30184;42.018;23.670;2022-12-10T13:42:29;98.70;;;47.40;;
44480;SDS011;30184;42.018;23.670;2022-12-10T13:45:25;78.68;;;37.75;;
44480;SDS011;30184;42.018;23.670;2022-12-10T13:51:08;78.07;;;43.95;;
44480;SDS011;30184;42.018;23.670;2022-12-10T13:53:49;63.78;;;32.78;;
44480;SDS011;30184;42.018;23.670;2022-12-10T13:56:29;76.57;;;42.20;;
44480;SDS011;30184;42.018;23.670;2022-12-10T13:59:20;208.57;;;115.10;;
44480;SDS011;30184;42.018;23.670;2022-12-10T14:02:00;115.22;;;64.18;;
44480;SDS011;30184;42.018;23.670;2022-12-10T14:04:53;84.88;;;47.97;;
44480;SDS011;30184;42.018;23.670;2022-12-10T14:07:39;142.35;;;79.10;;
44480;SDS011;30184;42.018;23.670;2022-12-10T14:10:15;119.90;;;69.28;;
44480;SDS011;30184;42.018;23.670;2022-12-10T14:12:48;188.55;;;104.90;;
44480;SDS011;30184;42.018;23.670;2022-12-10T14:15:19;173.68;;;104.43;;
44480;SDS011;30184;42.018;23.670;2022-12-10T14:17:51;124.40;;;58.60;;
44480;SDS011;30184;42.018;23.670;2022-12-10T14:20:24;101.32;;;52.85;;
44480;SDS011;30184;42.018;23.670;2022-12-10T14:22:55;120.28;;;63.30;;
44480;SDS011;30184;42.018;23.670;2022-12-10T14:25:46;164.18;;;88.78;;
44480;SDS011;30184;42.018;23.670;2022-12-10T14:28:17;74.80;;;40.25;;
44480;SDS011;30184;42.018;23.670;2022-12-10T14:30:48;109.25;;;49.20;;
44480;SDS011;30184;42.018;23.670;2022-12-10T14:33:19;57.47;;;28.20;;
44480;SDS011;30184;42.018;23.670;2022-12-10T14:35:51;108.45;;;54.95;;
44480;SDS011;30184;42.018;23.670;2022-12-10T14:38:23;128.25;;;61.60;;
44480;SDS011;30184;42.018;23.670;2022-12-10T14:43:29;198.57;;;105.15;;
44480;SDS011;30184;42.018;23.670;2022-12-10T14:46:04;158.48;;;83.85;;
44480;SDS011;30184;42.018;23.670;2022-12-10T14:48:40;99.07;;;56.15;;
44480;SDS011;30184;42.018;23.670;2022-12-10T14:51:13;204.45;;;122.03;;
44480;SDS011;30184;42.018;23.670;2022-12-10T14:53:43;185.65;;;92.13;;
44480;SDS011;30184;42.018;23.670;2022-12-10T14:56:15;98.07;;;47.35;;
44480;SDS011;30184;42.018;23.670;2022-12-10T14:58:51;131.68;;;69.93;;